sensor_id;sensor_type;location;lat;lon;timestamp;temperature;humidity
11748;DHT22;5931;48.832;9.072;2023-04-10T00:00:35;2.30;99.90
11748;DHT22;5931;48.832;9.072;2023-04-10T00:03:02;2.30;99.90
11748;DHT22;5931;48.832;9.072;2023-04-10T00:05:28;2.20;99.90
11748;DHT22;5931;48.832;9.072;2023-04-10T00:07:54;2.20;99.90
11748;DHT22;5931;48.832;9.072;2023-04-10T00:10:19;2.20;99.90
11748;DHT22;5931;48.832;9.072;2023-04-10T00:12:45;2.10;99.90
11748;DHT22;5931;48.832;9.072;2023-04-10T00:15:11;2.00;99.90
11748;DHT22;5931;48.832;9.072;2023-04-10T00:17:37;2.00;99.90
11748;DHT22;5931;48.832;9.072;2023-04-10T00:20:03;1.90;99.90
11748;DHT22;5931;48.832;9.072;2023-04-10T00:22:29;1.90;99.90
11748;DHT22;5931;48.832;9.072;2023-04-10T00:24:55;1.80;99.90
11748;DHT22;5931;48.832;9.072;2023-04-10T00:27:20;1.70;99.90
11748;DHT22;5931;48.832;9.072;2023-04-10T00:29:46;1.60;99.90
11748;DHT22;5931;48.832;9.072;2023-04-10T00:32:12;1.60;99.90
11748;DHT22;5931;48.832;9.072;2023-04-10T00:34:38;1.50;99.90
11748;DHT22;5931;48.832;9.072;2023-04-10T00:37:03;1.40;99.90
11748;DHT22;5931;48.832;9.072;2023-04-10T00:39:29;1.40;99.90
11748;DHT22;5931;48.832;9.072;2023-04-10T00:41:55;1.40;99.90
11748;DHT22;5931;48.832;9.072;2023-04-10T00:44:22;1.50;99.90
11748;DHT22;5931;48.832;9.072;2023-04-10T00:46:47;1.50;99.90
11748;DHT22;5931;48.832;9.072;2023-04-10T00:49:13;1.40;99.90
11748;DHT22;5931;48.832;9.072;2023-04-10T00:51:39;1.20;99.90
11748;DHT22;5931;48.832;9.072;2023-04-10T00:54:06;1.10;99.90
11748;DHT22;5931;48.832;9.072;2023-04-10T00:56:35;1.00;99.90
11748;DHT22;5931;48.832;9.072;2023-04-10T00:59:01;1.00;99.90
11748;DHT22;5931;48.832;9.072;2023-04-10T01:01:27;1.00;99.90
11748;DHT22;5931;48.832;9.072;2023-04-10T01:03:55;0.90;99.90
11748;DHT22;5931;48.832;9.072;2023-04-10T01:06:43;0.90;99.90
11748;DHT22;5931;48.832;9.072;2023-04-10T01:09:31;0.90;99.90
11748;DHT22;5931;48.832;9.072;2023-04-10T01:20:01;0.70;99.90
11748;DHT22;5931;48.832;9.072;2023-04-10T01:22:40;0.80;99.90
11748;DHT22;5931;48.832;9.072;2023-04-10T01:28:10;0.70;99.90
11748;DHT22;5931;48.832;9.072;2023-04-10T01:30:41;0.70;99.90
11748;DHT22;5931;48.832;9.072;2023-04-10T01:33:11;0.70;99.90
11748;DHT22;5931;48.832;9.072;2023-04-10T01:35:39;0.60;99.90
11748;DHT22;5931;48.832;9.072;2023-04-10T01:38:08;0.50;99.90
11748;DHT22;5931;48.832;9.072;2023-04-10T01:40:37;0.50;99.90
11748;DHT22;5931;48.832;9.072;2023-04-10T01:43:05;0.40;99.90
11748;DHT22;5931;48.832;9.072;2023-04-10T01:45:42;0.40;99.90
11748;DHT22;5931;48.832;9.072;2023-04-10T01:48:09;0.40;99.90
11748;DHT22;5931;48.832;9.072;2023-04-10T01:50:35;0.60;99.90
11748;DHT22;5931;48.832;9.072;2023-04-10T01:53:04;0.50;99.90
11748;DHT22;5931;48.832;9.072;2023-04-10T01:55:31;0.50;99.90
11748;DHT22;5931;48.832;9.072;2023-04-10T01:58:02;0.50;99.90
11748;DHT22;5931;48.832;9.072;2023-04-10T02:00:29;0.60;99.90
11748;DHT22;5931;48.832;9.072;2023-04-10T02:02:55;0.50;99.90
11748;DHT22;5931;48.832;9.072;2023-04-10T02:05:27;0.40;99.90
11748;DHT22;5931;48.832;9.072;2023-04-10T02:08:01;0.50;99.90
11748;DHT22;5931;48.832;9.072;2023-04-10T02:11:12;0.40;99.90
11748;DHT22;5931;48.832;9.072;2023-04-10T02:13:39;0.50;99.90
11748;DHT22;5931;48.832;9.072;2023-04-10T02:16:06;0.60;99.90
11748;DHT22;5931;48.832;9.072;2023-04-10T02:18:37;0.60;99.90
11748;DHT22;5931;48.832;9.072;2023-04-10T02:21:06;0.50;99.90
11748;DHT22;5931;48.832;9.072;2023-04-10T02:23:32;0.40;99.90
11748;DHT22;5931;48.832;9.072;2023-04-10T02:25:57;0.30;99.90
11748;DHT22;5931;48.832;9.072;2023-04-10T02:28:29;0.20;99.90
11748;DHT22;5931;48.832;9.072;2023-04-10T02:30:56;0.20;99.90
11748;DHT22;5931;48.832;9.072;2023-04-10T02:33:22;0.20;99.90
11748;DHT22;5931;48.832;9.072;2023-04-10T02:35:48;0.20;99.90
11748;DHT22;5931;48.832;9.072;2023-04-10T02:38:14;0.10;99.90
11748;DHT22;5931;48.832;9.072;2023-04-10T02:40:40;0.10;99.90
11748;DHT22;5931;48.832;9.072;2023-04-10T02:43:11;0.00;99.90
11748;DHT22;5931;48.832;9.072;2023-04-10T02:45:37;0.00;99.90
11748;DHT22;5931;48.832;9.072;2023-04-10T02:48:07;0.00;99.90
11748;DHT22;5931;48.832;9.072;2023-04-10T02:50:33;-0.10;99.90
11748;DHT22;5931;48.832;9.072;2023-04-10T02:52:59;-0.20;99.90
11748;DHT22;5931;48.832;9.072;2023-04-10T02:55:25;-0.10;99.90
11748;DHT22;5931;48.832;9.072;2023-04-10T02:57:51;0.00;99.90
11748;DHT22;5931;48.832;9.072;2023-04-10T03:00:17;0.00;99.90
11748;DHT22;5931;48.832;9.072;2023-04-10T03:03:06;0.00;99.90
11748;DHT22;5931;48.832;9.072;2023-04-10T03:05:41;0.00;99.90
11748;DHT22;5931;48.832;9.072;2023-04-10T03:08:07;-0.10;99.90
11748;DHT22;5931;48.832;9.072;2023-04-10T03:10:33;-0.20;99.90
11748;DHT22;5931;48.832;9.072;2023-04-10T03:12:58;-0.20;99.90
11748;DHT22;5931;48.832;9.072;2023-04-10T03:15:24;-0.30;99.90
11748;DHT22;5931;48.832;9.072;2023-04-10T03:17:50;-0.20;99.90
11748;DHT22;5931;48.832;9.072;2023-04-10T03:20:16;-0.10;99.90
11748;DHT22;5931;48.832;9.072;2023-04-10T03:22:42;0.00;99.90
11748;DHT22;5931;48.832;9.072;2023-04-10T03:25:09;-0.10;99.90
11748;DHT22;5931;48.832;9.072;2023-04-10T03:27:34;0.00;99.90
11748;DHT22;5931;48.832;9.072;2023-04-10T03:30:01;0.00;99.90
11748;DHT22;5931;48.832;9.072;2023-04-10T03:32:36;0.00;99.90
11748;DHT22;5931;48.832;9.072;2023-04-10T03:35:03;0.00;99.90
11748;DHT22;5931;48.832;9.072;2023-04-10T03:37:29;-0.10;99.90
11748;DHT22;5931;48.832;9.072;2023-04-10T03:39:56;-0.20;99.90
11748;DHT22;5931;48.832;9.072;2023-04-10T03:42:21;-0.20;99.90
11748;DHT22;5931;48.832;9.072;2023-04-10T03:44:47;-0.20;99.90
11748;DHT22;5931;48.832;9.072;2023-04-10T03:47:13;-0.20;99.90
11748;DHT22;5931;48.832;9.072;2023-04-10T03:49:45;-0.10;99.90
11748;DHT22;5931;48.832;9.072;2023-04-10T03:52:10;-0.10;99.90
11748;DHT22;5931;48.832;9.072;2023-04-10T03:54:37;-0.20;99.90
11748;DHT22;5931;48.832;9.072;2023-04-10T03:57:03;-0.20;99.90
11748;DHT22;5931;48.832;9.072;2023-04-10T03:59:29;-0.20;99.90
11748;DHT22;5931;48.832;9.072;2023-04-10T04:01:55;-0.30;99.90
11748;DHT22;5931;48.832;9.072;2023-04-10T04:04:21;-0.30;99.90
11748;DHT22;5931;48.832;9.072;2023-04-10T04:06:49;-0.20;99.90
11748;DHT22;5931;48.832;9.072;2023-04-10T04:09:35;-0.20;99.90
11748;DHT22;5931;48.832;9.072;2023-04-10T04:12:21;-0.20;99.90
11748;DHT22;5931;48.832;9.072;2023-04-10T04:15:08;-0.10;99.90
11748;DHT22;5931;48.832;9.072;2023-04-10T04:17:45;-0.20;99.90
11748;DHT22;5931;48.832;9.072;2023-04-10T04:20:37;-0.20;99.90
11748;DHT22;5931;48.832;9.072;2023-04-10T04:23:18;-0.30;99.90
11748;DHT22;5931;48.832;9.072;2023-04-10T04:26:06;-0.30;99.90
11748;DHT22;5931;48.832;9.072;2023-04-10T04:29:10;-0.20;99.90
11748;DHT22;5931;48.832;9.072;2023-04-10T04:31:38;-0.10;99.90
11748;DHT22;5931;48.832;9.072;2023-04-10T04:34:31;-0.10;99.90
11748;DHT22;5931;48.832;9.072;2023-04-10T04:37:26;-0.10;99.90
11748;DHT22;5931;48.832;9.072;2023-04-10T04:40:15;-0.10;99.90
11748;DHT22;5931;48.832;9.072;2023-04-10T04:43:03;-0.10;99.90
11748;DHT22;5931;48.832;9.072;2023-04-10T04:45:55;-0.10;99.90
11748;DHT22;5931;48.832;9.072;2023-04-10T04:48:48;-0.10;99.90
11748;DHT22;5931;48.832;9.072;2023-04-10T04:51:32;-0.10;99.90
11748;DHT22;5931;48.832;9.072;2023-04-10T04:54:06;0.00;99.90
11748;DHT22;5931;48.832;9.072;2023-04-10T04:56:32;0.10;99.90
11748;DHT22;5931;48.832;9.072;2023-04-10T04:59:27;0.20;99.90
11748;DHT22;5931;48.832;9.072;2023-04-10T05:01:58;0.20;99.90
11748;DHT22;5931;48.832;9.072;2023-04-10T05:04:54;0.30;99.90
11748;DHT22;5931;48.832;9.072;2023-04-10T05:07:38;0.20;99.90
11748;DHT22;5931;48.832;9.072;2023-04-10T05:10:30;0.20;99.90
11748;DHT22;5931;48.832;9.072;2023-04-10T05:13:12;0.20;99.90
11748;DHT22;5931;48.832;9.072;2023-04-10T05:15:52;0.30;99.90
11748;DHT22;5931;48.832;9.072;2023-04-10T05:18:40;0.40;99.90
11748;DHT22;5931;48.832;9.072;2023-04-10T05:21:18;0.40;99.90
11748;DHT22;5931;48.832;9.072;2023-04-10T05:24:22;0.50;99.90
11748;DHT22;5931;48.832;9.072;2023-04-10T05:27:06;0.70;99.90
11748;DHT22;5931;48.832;9.072;2023-04-10T05:30:04;0.80;99.90
11748;DHT22;5931;48.832;9.072;2023-04-10T05:32:49;1.00;99.90
11748;DHT22;5931;48.832;9.072;2023-04-10T05:35:17;1.10;99.90
11748;DHT22;5931;48.832;9.072;2023-04-10T05:37:51;1.20;99.90
11748;DHT22;5931;48.832;9.072;2023-04-10T05:40:25;1.30;99.90
11748;DHT22;5931;48.832;9.072;2023-04-10T05:42:56;1.40;99.90
11748;DHT22;5931;48.832;9.072;2023-04-10T05:45:32;1.60;99.90
11748;DHT22;5931;48.832;9.072;2023-04-10T05:48:07;1.70;99.90
11748;DHT22;5931;48.832;9.072;2023-04-10T05:50:42;1.90;99.90
11748;DHT22;5931;48.832;9.072;2023-04-10T05:53:17;2.10;99.90
11748;DHT22;5931;48.832;9.072;2023-04-10T05:56:06;2.30;99.90
11748;DHT22;5931;48.832;9.072;2023-04-10T05:58:46;2.40;99.90
11748;DHT22;5931;48.832;9.072;2023-04-10T06:01:44;2.60;99.90
11748;DHT22;5931;48.832;9.072;2023-04-10T06:04:10;2.80;99.90
11748;DHT22;5931;48.832;9.072;2023-04-10T06:06:37;2.80;99.90
11748;DHT22;5931;48.832;9.072;2023-04-10T06:09:03;2.90;99.90
11748;DHT22;5931;48.832;9.072;2023-04-10T06:11:29;3.00;99.90
11748;DHT22;5931;48.832;9.072;2023-04-10T06:13:56;3.00;99.90
11748;DHT22;5931;48.832;9.072;2023-04-10T06:16:28;3.10;99.90
11748;DHT22;5931;48.832;9.072;2023-04-10T06:18:54;3.20;99.90
11748;DHT22;5931;48.832;9.072;2023-04-10T06:21:20;3.30;99.90
11748;DHT22;5931;48.832;9.072;2023-04-10T06:23:45;3.40;99.90
11748;DHT22;5931;48.832;9.072;2023-04-10T06:26:11;3.50;99.90
11748;DHT22;5931;48.832;9.072;2023-04-10T06:28:37;3.50;99.90
11748;DHT22;5931;48.832;9.072;2023-04-10T06:31:05;3.60;99.90
11748;DHT22;5931;48.832;9.072;2023-04-10T06:33:34;3.70;99.90
11748;DHT22;5931;48.832;9.072;2023-04-10T06:36:01;3.80;99.90
11748;DHT22;5931;48.832;9.072;2023-04-10T06:38:36;3.90;99.90
11748;DHT22;5931;48.832;9.072;2023-04-10T06:41:04;4.00;99.90
11748;DHT22;5931;48.832;9.072;2023-04-10T06:43:32;4.20;99.90
11748;DHT22;5931;48.832;9.072;2023-04-10T06:45:58;4.40;99.90
11748;DHT22;5931;48.832;9.072;2023-04-10T06:48:24;4.50;99.90
11748;DHT22;5931;48.832;9.072;2023-04-10T06:50:49;4.70;99.90
11748;DHT22;5931;48.832;9.072;2023-04-10T06:53:15;4.90;99.90
11748;DHT22;5931;48.832;9.072;2023-04-10T06:55:41;5.10;99.90
11748;DHT22;5931;48.832;9.072;2023-04-10T06:58:06;5.30;99.90
11748;DHT22;5931;48.832;9.072;2023-04-10T07:00:32;5.40;99.90
11748;DHT22;5931;48.832;9.072;2023-04-10T07:02:58;5.60;99.90
11748;DHT22;5931;48.832;9.072;2023-04-10T07:05:23;5.80;99.90
11748;DHT22;5931;48.832;9.072;2023-04-10T07:07:49;6.00;99.90
11748;DHT22;5931;48.832;9.072;2023-04-10T07:10:15;6.20;99.90
11748;DHT22;5931;48.832;9.072;2023-04-10T07:12:41;6.40;99.90
11748;DHT22;5931;48.832;9.072;2023-04-10T07:15:07;6.50;99.90
11748;DHT22;5931;48.832;9.072;2023-04-10T07:17:33;6.80;99.90
11748;DHT22;5931;48.832;9.072;2023-04-10T07:19:59;7.00;99.90
11748;DHT22;5931;48.832;9.072;2023-04-10T07:22:25;7.20;99.90
11748;DHT22;5931;48.832;9.072;2023-04-10T07:24:51;7.30;99.90
11748;DHT22;5931;48.832;9.072;2023-04-10T07:27:17;7.50;99.90
11748;DHT22;5931;48.832;9.072;2023-04-10T07:29:42;7.70;99.90
11748;DHT22;5931;48.832;9.072;2023-04-10T07:32:08;7.90;99.90
11748;DHT22;5931;48.832;9.072;2023-04-10T07:34:34;8.00;99.90
11748;DHT22;5931;48.832;9.072;2023-04-10T07:36:59;8.20;99.90
11748;DHT22;5931;48.832;9.072;2023-04-10T07:39:25;8.40;99.90
11748;DHT22;5931;48.832;9.072;2023-04-10T07:41:52;8.60;99.90
11748;DHT22;5931;48.832;9.072;2023-04-10T07:44:19;8.80;99.90
11748;DHT22;5931;48.832;9.072;2023-04-10T07:46:44;9.00;99.90
11748;DHT22;5931;48.832;9.072;2023-04-10T07:49:10;9.10;99.90
11748;DHT22;5931;48.832;9.072;2023-04-10T07:51:36;9.30;99.90
11748;DHT22;5931;48.832;9.072;2023-04-10T07:54:03;9.50;99.90
11748;DHT22;5931;48.832;9.072;2023-04-10T07:56:29;9.70;99.90
11748;DHT22;5931;48.832;9.072;2023-04-10T07:59:02;9.80;99.90
11748;DHT22;5931;48.832;9.072;2023-04-10T08:01:27;10.00;99.90
11748;DHT22;5931;48.832;9.072;2023-04-10T08:03:53;10.10;99.90
11748;DHT22;5931;48.832;9.072;2023-04-10T08:06:21;10.30;99.90
11748;DHT22;5931;48.832;9.072;2023-04-10T08:08:46;10.50;99.90
11748;DHT22;5931;48.832;9.072;2023-04-10T08:11:26;10.70;99.90
11748;DHT22;5931;48.832;9.072;2023-04-10T08:13:57;11.00;99.90
11748;DHT22;5931;48.832;9.072;2023-04-10T08:16:24;11.10;99.90
11748;DHT22;5931;48.832;9.072;2023-04-10T08:18:51;11.20;99.90
11748;DHT22;5931;48.832;9.072;2023-04-10T08:21:17;11.30;99.90
11748;DHT22;5931;48.832;9.072;2023-04-10T08:23:44;11.30;99.90
11748;DHT22;5931;48.832;9.072;2023-04-10T08:26:14;11.50;99.90
11748;DHT22;5931;48.832;9.072;2023-04-10T08:28:40;11.50;99.90
11748;DHT22;5931;48.832;9.072;2023-04-10T08:31:06;11.70;99.20
11748;DHT22;5931;48.832;9.072;2023-04-10T08:33:34;11.70;99.90
11748;DHT22;5931;48.832;9.072;2023-04-10T08:36:00;11.70;99.80
11748;DHT22;5931;48.832;9.072;2023-04-10T08:38:26;11.90;98.50
11748;DHT22;5931;48.832;9.072;2023-04-10T08:40:52;12.00;98.70
11748;DHT22;5931;48.832;9.072;2023-04-10T08:43:18;12.10;97.80
11748;DHT22;5931;48.832;9.072;2023-04-10T08:45:44;12.20;98.40
11748;DHT22;5931;48.832;9.072;2023-04-10T08:48:10;12.30;97.70
11748;DHT22;5931;48.832;9.072;2023-04-10T08:50:41;12.30;97.50
11748;DHT22;5931;48.832;9.072;2023-04-10T08:53:11;12.30;98.30
11748;DHT22;5931;48.832;9.072;2023-04-10T08:55:41;12.40;96.80
11748;DHT22;5931;48.832;9.072;2023-04-10T08:58:08;12.40;96.90
11748;DHT22;5931;48.832;9.072;2023-04-10T09:00:36;12.40;97.30
11748;DHT22;5931;48.832;9.072;2023-04-10T09:03:08;12.50;97.00
11748;DHT22;5931;48.832;9.072;2023-04-10T09:05:36;12.60;97.40
11748;DHT22;5931;48.832;9.072;2023-04-10T09:08:08;12.70;96.00
11748;DHT22;5931;48.832;9.072;2023-04-10T09:10:35;12.70;96.90
11748;DHT22;5931;48.832;9.072;2023-04-10T09:13:01;12.80;96.30
11748;DHT22;5931;48.832;9.072;2023-04-10T09:15:26;12.90;96.50
11748;DHT22;5931;48.832;9.072;2023-04-10T09:18:00;13.00;95.70
11748;DHT22;5931;48.832;9.072;2023-04-10T09:20:29;13.10;95.80
11748;DHT22;5931;48.832;9.072;2023-04-10T09:22:55;13.30;96.60
11748;DHT22;5931;48.832;9.072;2023-04-10T09:25:47;13.40;95.20
11748;DHT22;5931;48.832;9.072;2023-04-10T09:28:13;13.60;94.90
11748;DHT22;5931;48.832;9.072;2023-04-10T09:30:40;13.60;94.50
11748;DHT22;5931;48.832;9.072;2023-04-10T09:33:26;13.70;94.80
11748;DHT22;5931;48.832;9.072;2023-04-10T09:35:53;13.80;94.40
11748;DHT22;5931;48.832;9.072;2023-04-10T09:38:21;13.90;95.50
11748;DHT22;5931;48.832;9.072;2023-04-10T09:40:48;14.00;95.10
11748;DHT22;5931;48.832;9.072;2023-04-10T09:43:24;14.10;93.40
11748;DHT22;5931;48.832;9.072;2023-04-10T09:45:52;14.20;93.60
11748;DHT22;5931;48.832;9.072;2023-04-10T09:48:19;14.30;92.80
11748;DHT22;5931;48.832;9.072;2023-04-10T09:50:45;14.40;94.10
11748;DHT22;5931;48.832;9.072;2023-04-10T09:53:13;14.50;94.90
11748;DHT22;5931;48.832;9.072;2023-04-10T09:55:40;14.50;92.70
11748;DHT22;5931;48.832;9.072;2023-04-10T09:58:06;14.50;93.80
11748;DHT22;5931;48.832;9.072;2023-04-10T10:00:44;14.70;92.80
11748;DHT22;5931;48.832;9.072;2023-04-10T10:03:17;14.80;92.40
11748;DHT22;5931;48.832;9.072;2023-04-10T10:05:50;14.80;91.20
11748;DHT22;5931;48.832;9.072;2023-04-10T10:08:16;15.00;92.00
11748;DHT22;5931;48.832;9.072;2023-04-10T10:10:53;15.00;91.70
11748;DHT22;5931;48.832;9.072;2023-04-10T10:13:33;15.20;91.50
11748;DHT22;5931;48.832;9.072;2023-04-10T10:21:08;15.60;92.00
11748;DHT22;5931;48.832;9.072;2023-04-10T10:23:35;15.70;92.40
11748;DHT22;5931;48.832;9.072;2023-04-10T10:26:04;15.90;91.90
11748;DHT22;5931;48.832;9.072;2023-04-10T10:28:34;16.10;90.20
11748;DHT22;5931;48.832;9.072;2023-04-10T10:31:02;16.40;90.80
11748;DHT22;5931;48.832;9.072;2023-04-10T10:33:29;16.50;91.20
11748;DHT22;5931;48.832;9.072;2023-04-10T10:36:02;16.70;91.00
11748;DHT22;5931;48.832;9.072;2023-04-10T10:38:29;16.90;89.80
11748;DHT22;5931;48.832;9.072;2023-04-10T10:41:04;17.20;88.70
11748;DHT22;5931;48.832;9.072;2023-04-10T10:46:50;17.60;85.30
11748;DHT22;5931;48.832;9.072;2023-04-10T10:49:16;17.80;86.40
11748;DHT22;5931;48.832;9.072;2023-04-10T10:51:46;17.70;83.40
11748;DHT22;5931;48.832;9.072;2023-04-10T10:54:31;17.80;83.00
11748;DHT22;5931;48.832;9.072;2023-04-10T10:56:58;17.60;83.30
11748;DHT22;5931;48.832;9.072;2023-04-10T11:04:44;17.50;82.00
11748;DHT22;5931;48.832;9.072;2023-04-10T11:07:11;17.40;83.40
11748;DHT22;5931;48.832;9.072;2023-04-10T11:09:51;17.50;82.10
11748;DHT22;5931;48.832;9.072;2023-04-10T11:12:20;17.50;81.10
11748;DHT22;5931;48.832;9.072;2023-04-10T11:14:59;17.50;78.10
11748;DHT22;5931;48.832;9.072;2023-04-10T11:17:48;17.50;80.10
11748;DHT22;5931;48.832;9.072;2023-04-10T11:20:14;17.60;79.20
11748;DHT22;5931;48.832;9.072;2023-04-10T11:23:05;17.70;81.30
11748;DHT22;5931;48.832;9.072;2023-04-10T11:25:47;17.70;76.80
11748;DHT22;5931;48.832;9.072;2023-04-10T11:28:40;17.70;79.60
11748;DHT22;5931;48.832;9.072;2023-04-10T11:31:21;17.50;76.50
11748;DHT22;5931;48.832;9.072;2023-04-10T11:33:49;17.60;76.70
11748;DHT22;5931;48.832;9.072;2023-04-10T11:36:16;17.70;76.70
11748;DHT22;5931;48.832;9.072;2023-04-10T11:39:02;17.90;78.40
11748;DHT22;5931;48.832;9.072;2023-04-10T11:41:35;18.00;74.30
11748;DHT22;5931;48.832;9.072;2023-04-10T11:44:05;18.30;75.20
11748;DHT22;5931;48.832;9.072;2023-04-10T11:46:35;18.60;71.60
11748;DHT22;5931;48.832;9.072;2023-04-10T11:49:03;18.60;73.00
11748;DHT22;5931;48.832;9.072;2023-04-10T11:51:29;18.60;68.60
11748;DHT22;5931;48.832;9.072;2023-04-10T11:54:12;18.60;70.80
11748;DHT22;5931;48.832;9.072;2023-04-10T11:56:40;18.70;72.00
11748;DHT22;5931;48.832;9.072;2023-04-10T11:59:08;18.80;71.90
11748;DHT22;5931;48.832;9.072;2023-04-10T12:01:44;18.90;75.20
11748;DHT22;5931;48.832;9.072;2023-04-10T12:04:17;19.00;75.60
11748;DHT22;5931;48.832;9.072;2023-04-10T12:06:45;19.20;68.60
11748;DHT22;5931;48.832;9.072;2023-04-10T12:09:16;19.20;67.90
11748;DHT22;5931;48.832;9.072;2023-04-10T12:11:57;19.20;69.50
11748;DHT22;5931;48.832;9.072;2023-04-10T12:14:38;19.20;66.80
11748;DHT22;5931;48.832;9.072;2023-04-10T12:17:06;19.20;66.70
11748;DHT22;5931;48.832;9.072;2023-04-10T12:19:33;19.20;68.00
11748;DHT22;5931;48.832;9.072;2023-04-10T12:22:02;19.30;69.40
11748;DHT22;5931;48.832;9.072;2023-04-10T12:24:57;19.40;68.70
11748;DHT22;5931;48.832;9.072;2023-04-10T12:27:25;19.50;66.20
11748;DHT22;5931;48.832;9.072;2023-04-10T12:29:53;19.70;62.50
11748;DHT22;5931;48.832;9.072;2023-04-10T12:32:19;19.90;64.60
11748;DHT22;5931;48.832;9.072;2023-04-10T12:34:55;20.10;68.00
11748;DHT22;5931;48.832;9.072;2023-04-10T12:37:22;20.30;64.10
11748;DHT22;5931;48.832;9.072;2023-04-10T12:39:48;20.60;63.40
11748;DHT22;5931;48.832;9.072;2023-04-10T12:42:21;20.60;62.30
11748;DHT22;5931;48.832;9.072;2023-04-10T12:47:20;21.10;62.80
11748;DHT22;5931;48.832;9.072;2023-04-10T12:50:12;21.10;63.10
11748;DHT22;5931;48.832;9.072;2023-04-10T12:52:44;21.40;62.50
11748;DHT22;5931;48.832;9.072;2023-04-10T12:55:14;21.60;60.00
11748;DHT22;5931;48.832;9.072;2023-04-10T12:57:42;21.80;60.40
11748;DHT22;5931;48.832;9.072;2023-04-10T13:00:09;22.00;63.20
11748;DHT22;5931;48.832;9.072;2023-04-10T13:02:36;22.10;59.70
11748;DHT22;5931;48.832;9.072;2023-04-10T13:05:02;22.40;59.20
11748;DHT22;5931;48.832;9.072;2023-04-10T13:07:28;22.10;59.60
11748;DHT22;5931;48.832;9.072;2023-04-10T13:09:54;22.50;61.10
11748;DHT22;5931;48.832;9.072;2023-04-10T13:12:19;22.30;58.10
11748;DHT22;5931;48.832;9.072;2023-04-10T13:14:45;22.40;57.00
11748;DHT22;5931;48.832;9.072;2023-04-10T13:17:11;22.40;56.40
11748;DHT22;5931;48.832;9.072;2023-04-10T13:19:37;22.20;56.90
11748;DHT22;5931;48.832;9.072;2023-04-10T13:22:02;22.50;56.00
11748;DHT22;5931;48.832;9.072;2023-04-10T13:24:29;22.30;57.60
11748;DHT22;5931;48.832;9.072;2023-04-10T13:26:55;22.20;58.50
11748;DHT22;5931;48.832;9.072;2023-04-10T13:29:23;22.20;58.00
11748;DHT22;5931;48.832;9.072;2023-04-10T13:31:49;22.40;58.20
11748;DHT22;5931;48.832;9.072;2023-04-10T13:34:15;22.60;57.00
11748;DHT22;5931;48.832;9.072;2023-04-10T13:36:41;22.90;59.50
11748;DHT22;5931;48.832;9.072;2023-04-10T13:39:06;23.20;55.60
11748;DHT22;5931;48.832;9.072;2023-04-10T13:41:32;22.70;64.50
11748;DHT22;5931;48.832;9.072;2023-04-10T13:43:58;22.90;56.20
11748;DHT22;5931;48.832;9.072;2023-04-10T13:46:24;23.00;57.10
11748;DHT22;5931;48.832;9.072;2023-04-10T13:48:50;23.20;58.00
11748;DHT22;5931;48.832;9.072;2023-04-10T13:51:16;22.90;57.40
11748;DHT22;5931;48.832;9.072;2023-04-10T13:53:42;22.90;57.00
11748;DHT22;5931;48.832;9.072;2023-04-10T13:56:08;23.00;58.10
11748;DHT22;5931;48.832;9.072;2023-04-10T13:58:33;22.90;57.40
11748;DHT22;5931;48.832;9.072;2023-04-10T14:00:59;22.80;59.40
11748;DHT22;5931;48.832;9.072;2023-04-10T14:03:26;22.60;58.40
11748;DHT22;5931;48.832;9.072;2023-04-10T14:05:52;22.70;58.80
11748;DHT22;5931;48.832;9.072;2023-04-10T14:08:17;22.50;59.60
11748;DHT22;5931;48.832;9.072;2023-04-10T14:10:45;22.60;57.80
11748;DHT22;5931;48.832;9.072;2023-04-10T14:13:15;22.60;58.80
11748;DHT22;5931;48.832;9.072;2023-04-10T14:15:41;22.80;57.10
11748;DHT22;5931;48.832;9.072;2023-04-10T14:18:07;22.80;57.60
11748;DHT22;5931;48.832;9.072;2023-04-10T14:20:32;22.90;56.70
11748;DHT22;5931;48.832;9.072;2023-04-10T14:22:58;23.00;57.80
11748;DHT22;5931;48.832;9.072;2023-04-10T14:25:24;22.90;57.40
11748;DHT22;5931;48.832;9.072;2023-04-10T14:27:50;22.40;57.60
11748;DHT22;5931;48.832;9.072;2023-04-10T14:30:15;22.50;56.60
11748;DHT22;5931;48.832;9.072;2023-04-10T14:32:41;22.60;58.60
11748;DHT22;5931;48.832;9.072;2023-04-10T14:35:08;22.40;58.80
11748;DHT22;5931;48.832;9.072;2023-04-10T14:37:34;22.60;57.50
11748;DHT22;5931;48.832;9.072;2023-04-10T14:39:59;22.90;57.20
11748;DHT22;5931;48.832;9.072;2023-04-10T14:42:25;23.10;57.30
11748;DHT22;5931;48.832;9.072;2023-04-10T14:44:52;23.40;57.30
11748;DHT22;5931;48.832;9.072;2023-04-10T14:47:17;23.80;56.50
11748;DHT22;5931;48.832;9.072;2023-04-10T14:49:43;24.00;56.10
11748;DHT22;5931;48.832;9.072;2023-04-10T14:52:08;24.20;57.10
11748;DHT22;5931;48.832;9.072;2023-04-10T14:54:34;24.10;56.20
11748;DHT22;5931;48.832;9.072;2023-04-10T14:57:01;24.50;57.50
11748;DHT22;5931;48.832;9.072;2023-04-10T14:59:28;24.80;56.60
11748;DHT22;5931;48.832;9.072;2023-04-10T15:01:54;25.20;55.10
11748;DHT22;5931;48.832;9.072;2023-04-10T15:04:20;25.40;54.50
11748;DHT22;5931;48.832;9.072;2023-04-10T15:06:45;25.50;52.90
11748;DHT22;5931;48.832;9.072;2023-04-10T15:09:11;25.20;53.00
11748;DHT22;5931;48.832;9.072;2023-04-10T15:11:36;24.80;55.10
11748;DHT22;5931;48.832;9.072;2023-04-10T15:14:02;24.70;52.90
11748;DHT22;5931;48.832;9.072;2023-04-10T15:16:28;24.70;54.40
11748;DHT22;5931;48.832;9.072;2023-04-10T15:18:54;24.30;53.80
11748;DHT22;5931;48.832;9.072;2023-04-10T15:21:20;23.80;53.20
11748;DHT22;5931;48.832;9.072;2023-04-10T15:23:46;23.40;52.80
11748;DHT22;5931;48.832;9.072;2023-04-10T15:26:13;22.80;53.00
11748;DHT22;5931;48.832;9.072;2023-04-10T15:28:39;22.40;53.80
11748;DHT22;5931;48.832;9.072;2023-04-10T15:31:05;22.30;54.40
11748;DHT22;5931;48.832;9.072;2023-04-10T15:33:31;22.40;54.50
11748;DHT22;5931;48.832;9.072;2023-04-10T15:35:56;22.30;55.80
11748;DHT22;5931;48.832;9.072;2023-04-10T15:38:23;22.00;53.80
11748;DHT22;5931;48.832;9.072;2023-04-10T15:40:53;21.50;57.30
11748;DHT22;5931;48.832;9.072;2023-04-10T15:43:19;21.20;54.00
11748;DHT22;5931;48.832;9.072;2023-04-10T15:45:44;21.20;58.00
11748;DHT22;5931;48.832;9.072;2023-04-10T15:48:11;21.00;54.00
11748;DHT22;5931;48.832;9.072;2023-04-10T15:50:37;20.70;55.90
11748;DHT22;5931;48.832;9.072;2023-04-10T15:53:04;20.50;56.80
11748;DHT22;5931;48.832;9.072;2023-04-10T15:55:30;20.50;55.80
11748;DHT22;5931;48.832;9.072;2023-04-10T15:57:56;20.20;57.10
11748;DHT22;5931;48.832;9.072;2023-04-10T16:00:22;20.10;57.20
11748;DHT22;5931;48.832;9.072;2023-04-10T16:02:48;19.90;57.90
11748;DHT22;5931;48.832;9.072;2023-04-10T16:05:14;19.90;57.30
11748;DHT22;5931;48.832;9.072;2023-04-10T16:07:39;19.90;58.40
11748;DHT22;5931;48.832;9.072;2023-04-10T16:10:08;19.60;56.10
11748;DHT22;5931;48.832;9.072;2023-04-10T16:12:34;19.60;60.00
11748;DHT22;5931;48.832;9.072;2023-04-10T16:15:00;19.40;58.10
11748;DHT22;5931;48.832;9.072;2023-04-10T16:17:26;19.40;57.10
11748;DHT22;5931;48.832;9.072;2023-04-10T16:19:54;19.30;57.70
11748;DHT22;5931;48.832;9.072;2023-04-10T16:22:19;19.30;58.50
11748;DHT22;5931;48.832;9.072;2023-04-10T16:24:45;19.30;58.10
11748;DHT22;5931;48.832;9.072;2023-04-10T16:27:11;19.30;59.40
11748;DHT22;5931;48.832;9.072;2023-04-10T16:29:36;19.40;59.60
11748;DHT22;5931;48.832;9.072;2023-04-10T16:32:02;19.40;60.50
11748;DHT22;5931;48.832;9.072;2023-04-10T16:34:28;19.40;58.70
11748;DHT22;5931;48.832;9.072;2023-04-10T16:36:53;19.50;58.30